createdAt,value
2023-04-15T00:00:58.781Z,57.95
2023-04-15T00:03:25.973Z,58.27
2023-04-15T00:05:52.961Z,57.31
2023-04-15T00:08:20.005Z,57.42
2023-04-15T00:10:46.870Z,59.38
2023-04-15T00:13:13.774Z,58.44
2023-04-15T00:15:41.394Z,57.70
2023-04-15T00:18:08.410Z,58.90
2023-04-15T00:20:35.849Z,58.56
2023-04-15T00:23:03.318Z,58.08
2023-04-15T00:25:30.066Z,59.05
2023-04-15T00:27:56.794Z,58.89
2023-04-15T00:30:23.684Z,60.06
2023-04-15T00:32:50.585Z,59.75
2023-04-15T00:35:17.486Z,58.88
2023-04-15T00:37:46.005Z,58.42
2023-04-15T00:40:13.819Z,58.48
2023-04-15T00:42:41.139Z,58.88
2023-04-15T00:45:08.523Z,62.43
2023-04-15T00:47:36.610Z,62.19
2023-04-15T00:50:04.034Z,59.87
2023-04-15T00:52:31.243Z,59.67
2023-04-15T00:54:58.150Z,59.31
2023-04-15T00:57:25.072Z,59.11
2023-04-15T00:59:53.344Z,58.70
2023-04-15T01:02:20.476Z,58.93
2023-04-15T01:04:47.392Z,58.74
2023-04-15T01:07:14.569Z,59.15
2023-04-15T01:09:42.266Z,58.81
2023-04-15T01:12:14.203Z,60.94
2023-04-15T01:14:41.428Z,60.75
2023-04-15T01:17:08.211Z,60.46
2023-04-15T01:19:36.976Z,59.57
2023-04-15T01:22:04.322Z,59.17
2023-04-15T01:24:32.710Z,59.27
2023-04-15T01:26:59.649Z,59.69
2023-04-15T01:29:26.541Z,61.16
2023-04-15T01:31:55.170Z,60.27
2023-04-15T01:34:22.327Z,59.50
2023-04-15T01:36:49.372Z,59.95
2023-04-15T01:39:16.197Z,60.09
2023-04-15T01:41:42.980Z,59.50
2023-04-15T01:44:09.905Z,59.73
2023-04-15T01:46:36.830Z,59.80
2023-04-15T01:49:03.729Z,59.65
2023-04-15T01:51:30.751Z,59.09
2023-04-15T01:53:57.592Z,59.44
2023-04-15T01:56:24.513Z,59.21
2023-04-15T01:58:51.655Z,59.81
2023-04-15T02:01:18.789Z,59.69
2023-04-15T02:03:46.273Z,60.05
2023-04-15T02:06:13.333Z,60.01
2023-04-15T02:08:40.200Z,59.15
2023-04-15T02:11:07.039Z,59.96
2023-04-15T02:13:33.961Z,59.85
2023-04-15T02:16:00.757Z,58.84
2023-04-15T02:18:27.557Z,58.90
2023-04-15T02:20:54.611Z,59.64
2023-04-15T02:23:21.423Z,59.28
2023-04-15T02:25:53.754Z,59.10
2023-04-15T02:28:22.095Z,60.87
2023-04-15T02:30:49.715Z,60.49
2023-04-15T02:33:16.599Z,61.17
2023-04-15T02:35:43.459Z,60.08
2023-04-15T02:38:10.268Z,61.66
2023-04-15T02:40:37.370Z,60.22
2023-04-15T02:43:04.202Z,60.05
2023-04-15T02:45:31.039Z,60.14
2023-04-15T02:47:57.942Z,60.74
2023-04-15T02:50:24.920Z,60.29
2023-04-15T02:52:51.845Z,60.30
2023-04-15T02:55:18.725Z,60.56
2023-04-15T02:57:45.554Z,59.98
2023-04-15T03:00:13.003Z,60.44
2023-04-15T03:02:40.395Z,60.45
2023-04-15T03:05:08.021Z,60.17
2023-04-15T03:07:34.883Z,60.84
2023-04-15T03:10:01.689Z,62.54
2023-04-15T03:12:28.652Z,61.98
2023-04-15T03:14:55.435Z,63.74
2023-04-15T03:17:22.286Z,65.73
2023-04-15T03:19:49.215Z,65.25
2023-04-15T03:22:16.018Z,65.24
2023-04-15T03:24:42.922Z,65.43
2023-04-15T03:27:09.875Z,65.75
2023-04-15T03:29:36.767Z,64.66
2023-04-15T03:32:03.776Z,63.39
2023-04-15T03:34:30.673Z,63.04
2023-04-15T03:36:57.437Z,65.02
2023-04-15T03:39:24.240Z,65.57
2023-04-15T03:41:51.095Z,64.79
2023-04-15T03:44:17.916Z,65.87
2023-04-15T03:46:44.840Z,66.24
2023-04-15T03:49:11.835Z,65.27
2023-04-15T03:51:38.654Z,65.04
2023-04-15T03:54:05.480Z,65.04
2023-04-15T03:56:32.396Z,65.70
2023-04-15T03:58:59.266Z,67.51
2023-04-15T04:01:26.253Z,66.79
2023-04-15T04:03:53.278Z,66.70
2023-04-15T04:06:20.355Z,66.40
2023-04-15T04:08:47.142Z,67.73
2023-04-15T04:11:14.025Z,68.08
2023-04-15T04:13:41.020Z,66.10
2023-04-15T04:16:07.927Z,66.14
2023-04-15T04:18:34.991Z,65.53
2023-04-15T04:21:02.298Z,64.58
2023-04-15T04:23:29.362Z,65.06
2023-04-15T04:25:56.239Z,63.54
2023-04-15T04:28:23.076Z,62.50
2023-04-15T04:30:49.961Z,63.42
2023-04-15T04:33:16.892Z,63.80
2023-04-15T04:35:43.614Z,64.30
2023-04-15T04:38:10.434Z,63.63
2023-04-15T04:40:37.431Z,63.58
2023-04-15T04:43:04.260Z,62.21
2023-04-15T04:45:31.157Z,59.89
2023-04-15T04:47:58.049Z,59.28
2023-04-15T04:50:24.896Z,59.12
2023-04-15T04:52:51.674Z,58.37
2023-04-15T04:55:18.653Z,58.78
2023-04-15T04:57:45.677Z,57.24
2023-04-15T05:00:12.981Z,57.69
2023-04-15T05:02:40.029Z,58.02
2023-04-15T05:05:07.379Z,57.31
2023-04-15T05:07:34.311Z,57.30
2023-04-15T05:10:01.419Z,56.60
2023-04-15T05:12:28.321Z,56.79
2023-04-15T05:14:55.155Z,54.35
2023-04-15T05:17:22.751Z,54.69
2023-04-15T05:19:49.623Z,54.35
2023-04-15T05:22:16.501Z,53.06
2023-04-15T05:24:43.425Z,50.40
2023-04-15T05:27:10.200Z,50.38
2023-04-15T05:29:37.024Z,49.78
2023-04-15T05:32:04.034Z,51.28
2023-04-15T05:34:30.870Z,51.59
2023-04-15T05:36:57.769Z,53.35
2023-04-15T05:39:24.567Z,53.00
2023-04-15T05:41:51.408Z,53.14
2023-04-15T05:44:18.254Z,52.86
2023-04-15T05:46:45.123Z,53.46
2023-04-15T05:49:12.010Z,53.67
2023-04-15T05:51:38.787Z,51.18
2023-04-15T05:54:05.638Z,51.60
2023-04-15T05:56:32.463Z,51.33
2023-04-15T05:58:59.662Z,50.48
2023-04-15T06:01:26.716Z,50.47
2023-04-15T06:03:53.752Z,50.41
2023-04-15T06:06:20.706Z,49.94
2023-04-15T06:08:47.732Z,50.49
2023-04-15T06:11:14.905Z,50.76
2023-04-15T06:13:41.764Z,50.94
2023-04-15T06:16:08.786Z,51.94
2023-04-15T06:18:35.725Z,53.16
2023-04-15T06:21:02.585Z,51.43
2023-04-15T06:23:29.715Z,51.12
2023-04-15T06:25:56.512Z,51.99
2023-04-15T06:28:23.389Z,51.31
2023-04-15T06:30:50.376Z,51.76
2023-04-15T06:33:17.294Z,50.61
2023-04-15T06:35:44.134Z,51.99
2023-04-15T06:38:10.982Z,52.15
2023-04-15T06:40:37.898Z,51.57
2023-04-15T06:43:08.771Z,51.92
2023-04-15T06:45:35.655Z,52.21
2023-04-15T06:48:02.446Z,53.26
2023-04-15T06:50:29.416Z,51.86
2023-04-15T06:52:59.242Z,51.82
2023-04-15T06:55:26.174Z,52.32
2023-04-15T06:57:52.993Z,53.53
2023-04-15T07:00:19.985Z,54.24
2023-04-15T07:02:47.044Z,51.82
2023-04-15T07:05:14.860Z,52.30
2023-04-15T07:07:41.904Z,52.04
2023-04-15T07:10:09.278Z,53.22
2023-04-15T07:12:36.097Z,50.74
2023-04-15T07:15:03.287Z,50.35
2023-04-15T07:17:30.256Z,50.60
2023-04-15T07:19:57.218Z,51.49
2023-04-15T07:22:24.297Z,49.91
2023-04-15T07:24:53.763Z,52.91
2023-04-15T07:27:20.627Z,50.80
2023-04-15T07:29:47.706Z,51.26
2023-04-15T07:32:14.576Z,49.59
2023-04-15T07:34:41.461Z,48.40
2023-04-15T07:37:08.492Z,48.43
2023-04-15T07:39:35.413Z,49.24
2023-04-15T07:42:02.545Z,52.00
2023-04-15T07:44:29.563Z,50.54
2023-04-15T07:46:57.468Z,46.33
2023-04-15T07:49:24.487Z,46.28
2023-04-15T07:51:51.334Z,48.56
2023-04-15T07:54:18.183Z,49.05
2023-04-15T07:56:45.043Z,47.32
2023-04-15T07:59:11.898Z,48.26
2023-04-15T08:01:39.843Z,48.62
2023-04-15T08:04:06.874Z,48.10
2023-04-15T08:06:33.852Z,47.62
2023-04-15T08:09:01.015Z,47.69
2023-04-15T08:11:29.649Z,48.21
2023-04-15T08:13:56.536Z,45.99
2023-04-15T08:16:25.224Z,48.09
2023-04-15T08:18:55.385Z,44.83
2023-04-15T08:21:22.426Z,44.67
2023-04-15T08:23:51.132Z,44.98
2023-04-15T08:26:18.931Z,46.91
2023-04-15T08:28:46.662Z,46.08
2023-04-15T08:31:15.628Z,46.64
2023-04-15T08:33:42.716Z,46.46
2023-04-15T08:36:09.753Z,46.58
2023-04-15T08:38:36.669Z,46.36
2023-04-15T08:41:12.091Z,46.36
2023-04-15T08:43:59.193Z,45.08
2023-04-15T08:46:26.966Z,47.88
2023-04-15T08:48:57.667Z,46.62
2023-04-15T08:51:25.119Z,44.89
2023-04-15T08:53:52.401Z,46.19
2023-04-15T08:56:19.748Z,46.08
2023-04-15T08:58:46.869Z,45.23
2023-04-15T09:01:13.973Z,46.68
2023-04-15T09:03:41.962Z,46.30
2023-04-15T09:06:09.023Z,46.19
2023-04-15T09:08:35.958Z,47.84
2023-04-15T09:11:03.965Z,43.58
2023-04-15T09:13:31.148Z,43.92
2023-04-15T09:15:58.172Z,44.59
2023-04-15T09:18:29.905Z,45.22
2023-04-15T09:20:56.935Z,43.85
2023-04-15T09:23:24.021Z,44.93
2023-04-15T09:25:51.170Z,46.05
2023-04-15T09:28:24.735Z,44.11
2023-04-15T09:30:53.343Z,44.69
2023-04-15T09:33:20.277Z,44.90
2023-04-15T09:36:04.804Z,43.14
2023-04-15T09:38:35.276Z,43.56
2023-04-15T09:41:02.289Z,39.84
2023-04-15T09:43:47.154Z,38.96
2023-04-15T09:46:14.033Z,38.69
2023-04-15T09:48:40.982Z,37.99
2023-04-15T09:51:08.133Z,39.96
2023-04-15T09:53:38.878Z,40.40
2023-04-15T09:56:05.979Z,39.93
2023-04-15T09:58:35.700Z,39.30
2023-04-15T10:01:05.770Z,39.92
2023-04-15T10:03:34.769Z,38.50
2023-04-15T10:06:02.673Z,39.51
2023-04-15T10:08:32.050Z,38.27
2023-04-15T10:11:00.336Z,38.08
2023-04-15T10:13:31.427Z,38.90
2023-04-15T10:16:06.574Z,39.36
2023-04-15T10:18:37.996Z,38.74
2023-04-15T10:21:06.000Z,40.55
2023-04-15T10:23:33.847Z,39.43
2023-04-15T10:26:01.401Z,37.89
2023-04-15T10:28:28.492Z,38.45
2023-04-15T10:30:56.685Z,37.09
2023-04-15T10:33:25.393Z,36.57
2023-04-15T10:35:54.514Z,38.63
2023-04-15T10:38:33.934Z,38.90
2023-04-15T10:41:14.149Z,37.28
2023-04-15T10:43:56.644Z,38.13
2023-04-15T10:46:40.609Z,37.01
2023-04-15T10:49:12.379Z,37.61
2023-04-15T10:51:41.317Z,37.39
2023-04-15T10:54:26.371Z,38.04
2023-04-15T10:57:09.027Z,37.63
2023-04-15T10:59:59.592Z,37.16
2023-04-15T11:02:40.765Z,33.51
2023-04-15T11:05:08.333Z,33.89
2023-04-15T11:07:47.356Z,32.48
2023-04-15T11:10:14.232Z,31.85
2023-04-15T11:12:42.111Z,33.41
2023-04-15T11:15:41.622Z,34.21
2023-04-15T11:18:22.697Z,34.94
2023-04-15T11:20:54.932Z,35.26
2023-04-15T11:23:41.854Z,34.11
2023-04-15T11:26:10.724Z,36.18
2023-04-15T11:28:39.317Z,32.92
2023-04-15T11:31:09.845Z,34.93
2023-04-15T11:33:37.001Z,34.17
2023-04-15T11:36:04.266Z,36.60
2023-04-15T11:38:31.208Z,35.51
2023-04-15T11:40:58.917Z,37.49
2023-04-15T11:43:25.780Z,35.98
2023-04-15T11:45:54.152Z,36.58
2023-04-15T11:48:24.183Z,34.47
2023-04-15T11:50:56.460Z,35.92
2023-04-15T11:53:24.192Z,35.67
2023-04-15T11:55:53.342Z,34.95
2023-04-15T11:58:25.293Z,33.07
2023-04-15T12:00:54.696Z,30.80
2023-04-15T12:03:39.618Z,31.97
2023-04-15T12:06:07.870Z,33.28
2023-04-15T12:08:56.497Z,33.88
2023-04-15T12:11:51.404Z,36.04
2023-04-15T12:14:29.399Z,34.15
2023-04-15T12:17:04.422Z,34.79
2023-04-15T12:19:42.368Z,34.81
2023-04-15T12:22:11.761Z,32.47
2023-04-15T12:24:39.642Z,31.98
2023-04-15T12:27:12.118Z,32.64
2023-04-15T12:29:40.657Z,31.70
2023-04-15T12:32:16.343Z,32.16
2023-04-15T12:34:53.638Z,30.66
2023-04-15T12:37:21.078Z,30.48
2023-04-15T12:39:49.548Z,29.95
2023-04-15T12:42:17.597Z,30.58
2023-04-15T12:44:45.063Z,30.38
2023-04-15T12:47:12.763Z,29.90
2023-04-15T12:49:40.026Z,31.05
2023-04-15T12:52:07.380Z,30.29
2023-04-15T12:54:34.301Z,32.25
2023-04-15T12:57:01.248Z,31.94
2023-04-15T12:59:29.027Z,32.54
2023-04-15T13:01:56.023Z,29.95
2023-04-15T13:04:23.211Z,31.99
2023-04-15T13:06:50.683Z,32.28
2023-04-15T13:09:17.768Z,32.28
2023-04-15T13:11:44.796Z,32.02
2023-04-15T13:14:11.927Z,31.94
2023-04-15T13:16:39.013Z,30.05
2023-04-15T13:19:06.019Z,30.11
2023-04-15T13:21:33.289Z,32.14
2023-04-15T13:24:00.201Z,32.65
2023-04-15T13:26:27.074Z,32.10
2023-04-15T13:28:54.088Z,32.51
2023-04-15T13:31:20.951Z,33.12
2023-04-15T13:33:47.909Z,30.85
2023-04-15T13:36:14.808Z,31.15
2023-04-15T13:38:41.716Z,30.35
2023-04-15T13:41:08.578Z,28.68
2023-04-15T13:43:36.176Z,29.04
2023-04-15T13:46:03.307Z,29.40
2023-04-15T13:48:30.238Z,29.58
2023-04-15T13:50:57.295Z,28.13
2023-04-15T13:53:37.672Z,29.43
2023-04-15T13:56:07.142Z,28.84
2023-04-15T13:58:34.236Z,29.26
2023-04-15T14:01:03.186Z,28.46
2023-04-15T14:03:32.070Z,29.44
2023-04-15T14:05:59.593Z,29.19
2023-04-15T14:08:26.470Z,28.57
2023-04-15T14:10:53.318Z,29.22
2023-04-15T14:13:20.130Z,30.15
2023-04-15T14:15:47.401Z,30.97
2023-04-15T14:18:14.716Z,33.32
2023-04-15T14:20:41.618Z,32.33
2023-04-15T14:23:08.537Z,31.30
2023-04-15T14:25:35.693Z,30.93
2023-04-15T14:28:02.854Z,33.54
2023-04-15T14:30:32.748Z,34.21
2023-04-15T14:32:59.739Z,33.96
2023-04-15T14:35:28.963Z,33.52
2023-04-15T14:37:55.829Z,34.72
2023-04-15T14:40:23.094Z,34.53
2023-04-15T14:42:50.087Z,36.00
2023-04-15T14:45:16.957Z,34.96
2023-04-15T14:47:44.200Z,34.68
2023-04-15T14:50:11.172Z,34.72
2023-04-15T14:52:38.026Z,34.30
2023-04-15T14:55:09.804Z,33.95
2023-04-15T14:57:37.909Z,33.86
2023-04-15T15:00:06.108Z,33.65
2023-04-15T15:02:39.119Z,32.02
2023-04-15T15:05:08.096Z,32.33
2023-04-15T15:07:35.440Z,32.27
2023-04-15T15:10:02.488Z,32.71
2023-04-15T15:12:29.392Z,31.73
2023-04-15T15:14:59.439Z,31.11
2023-04-15T15:17:26.694Z,31.57
2023-04-15T15:19:53.509Z,31.74
2023-04-15T15:22:21.462Z,31.93
2023-04-15T15:24:48.582Z,32.14
2023-04-15T15:27:15.469Z,32.42
2023-04-15T15:29:42.350Z,33.04
2023-04-15T15:32:09.225Z,32.84
2023-04-15T15:34:36.183Z,33.26
2023-04-15T15:37:03.162Z,33.30
2023-04-15T15:39:30.051Z,33.15
2023-04-15T15:41:56.851Z,33.72
2023-04-15T15:44:23.830Z,33.55
2023-04-15T15:46:50.967Z,33.62
2023-04-15T15:49:18.131Z,33.86
2023-04-15T15:51:45.080Z,34.10
2023-04-15T15:54:11.872Z,34.31
2023-04-15T15:56:38.682Z,34.46
2023-04-15T15:59:05.852Z,35.07
2023-04-15T16:01:32.944Z,35.25
2023-04-15T16:03:59.959Z,35.71
2023-04-15T16:06:26.894Z,35.75
2023-04-15T16:08:53.761Z,36.24
2023-04-15T16:11:20.630Z,36.67
2023-04-15T16:13:47.521Z,36.64
2023-04-15T16:16:14.480Z,36.69
2023-04-15T16:18:41.369Z,37.02
2023-04-15T16:21:09.132Z,37.26
2023-04-15T16:23:37.002Z,37.48
2023-04-15T16:26:03.889Z,37.37
2023-04-15T16:28:30.886Z,37.51
2023-04-15T16:30:57.702Z,37.39
2023-04-15T16:33:29.703Z,37.30
2023-04-15T16:35:56.601Z,37.68
2023-04-15T16:38:23.382Z,37.61
2023-04-15T16:40:50.250Z,37.43
2023-04-15T16:43:17.242Z,36.82
2023-04-15T16:45:44.124Z,37.77
2023-04-15T16:48:11.001Z,37.63
2023-04-15T16:50:37.948Z,37.50
2023-04-15T16:53:04.788Z,38.03
2023-04-15T16:55:31.676Z,37.97
2023-04-15T16:58:03.313Z,37.62
2023-04-15T17:00:32.091Z,37.60
2023-04-15T17:03:00.440Z,37.73
2023-04-15T17:05:27.771Z,37.74
2023-04-15T17:07:55.383Z,38.34
2023-04-15T17:10:23.037Z,38.76
2023-04-15T17:12:49.900Z,39.83
2023-04-15T17:15:16.781Z,40.98
2023-04-15T17:17:43.716Z,41.59
2023-04-15T17:20:11.494Z,42.09
2023-04-15T17:22:38.523Z,42.50
2023-04-15T17:25:06.169Z,43.18
2023-04-15T17:27:33.130Z,42.82
2023-04-15T17:29:59.964Z,43.43
2023-04-15T17:32:26.940Z,44.39
2023-04-15T17:34:53.832Z,43.34
2023-04-15T17:37:20.728Z,44.29
2023-04-15T17:39:47.597Z,43.81
2023-04-15T17:42:14.484Z,43.37
2023-04-15T17:44:41.486Z,43.43
2023-04-15T17:47:08.505Z,43.14
2023-04-15T17:49:35.424Z,43.09
2023-04-15T17:52:02.594Z,42.95
2023-04-15T17:54:29.501Z,42.89
2023-04-15T17:56:57.202Z,43.07
2023-04-15T17:59:24.406Z,43.28
2023-04-15T18:01:51.503Z,43.00
2023-04-15T18:04:18.336Z,42.67
2023-04-15T18:06:45.478Z,42.70
2023-04-15T18:09:12.443Z,43.10
2023-04-15T18:11:39.280Z,42.70
2023-04-15T18:14:06.635Z,43.01
2023-04-15T18:16:33.994Z,42.84
2023-04-15T18:19:00.997Z,42.77
2023-04-15T18:21:27.897Z,42.52
2023-04-15T18:23:54.905Z,42.51
2023-04-15T18:26:21.763Z,42.79
2023-04-15T18:28:48.756Z,42.81
2023-04-15T18:31:15.874Z,42.91
2023-04-15T18:33:42.705Z,43.09
2023-04-15T18:36:10.440Z,43.06
2023-04-15T18:38:37.552Z,43.14
2023-04-15T18:41:04.542Z,43.25
2023-04-15T18:43:31.849Z,43.21
2023-04-15T18:46:00.054Z,43.27
2023-04-15T18:48:27.262Z,43.04
2023-04-15T18:50:54.328Z,43.86
2023-04-15T18:53:21.783Z,43.71
2023-04-15T18:55:48.832Z,43.64
2023-04-15T18:58:15.806Z,43.46
2023-04-15T19:00:43.113Z,43.54
2023-04-15T19:03:10.698Z,43.27
2023-04-15T19:05:37.596Z,43.47
2023-04-15T19:08:04.619Z,43.37
2023-04-15T19:10:31.569Z,43.36
2023-04-15T19:12:58.412Z,43.56
2023-04-15T19:15:25.300Z,43.66
2023-04-15T19:17:52.112Z,44.16
2023-04-15T19:20:19.010Z,45.69
2023-04-15T19:22:46.349Z,45.28
2023-04-15T19:25:13.392Z,45.05
2023-04-15T19:27:40.265Z,46.12
2023-04-15T19:30:08.197Z,45.34
2023-04-15T19:32:35.890Z,45.26
2023-04-15T19:35:02.805Z,45.28
2023-04-15T19:37:32.678Z,45.25
2023-04-15T19:39:59.622Z,45.46
2023-04-15T19:42:26.700Z,45.63
2023-04-15T19:44:53.589Z,45.31
2023-04-15T19:47:20.596Z,45.33
2023-04-15T19:49:47.448Z,44.96
2023-04-15T19:52:14.397Z,45.44
2023-04-15T19:54:44.373Z,45.40
2023-04-15T19:57:11.322Z,45.66
2023-04-15T19:59:38.238Z,45.54
2023-04-15T20:02:05.335Z,45.00
2023-04-15T20:04:35.027Z,44.73
2023-04-15T20:07:01.931Z,44.77
2023-04-15T20:09:28.758Z,44.33
2023-04-15T20:12:47.866Z,44.44
2023-04-15T20:14:42.514Z,44.11
2023-04-15T20:17:09.706Z,43.82
2023-04-15T20:19:36.550Z,43.78
2023-04-15T20:22:03.422Z,43.69
2023-04-15T20:24:30.234Z,43.25
2023-04-15T20:26:57.042Z,43.65
2023-04-15T20:29:23.880Z,44.37
2023-04-15T20:31:50.741Z,44.56
2023-04-15T20:34:17.587Z,45.20
2023-04-15T20:36:44.525Z,44.48
2023-04-15T20:39:11.366Z,45.23
2023-04-15T20:41:38.974Z,45.59
2023-04-15T20:44:08.769Z,45.82
2023-04-15T20:46:35.613Z,46.11
2023-04-15T20:49:02.509Z,46.93
2023-04-15T20:51:29.441Z,49.43
2023-04-15T20:53:56.300Z,50.98
2023-04-15T20:56:23.147Z,48.87
2023-04-15T20:58:50.082Z,48.65
2023-04-15T21:01:16.968Z,48.59
2023-04-15T21:03:43.931Z,48.11
2023-04-15T21:06:10.900Z,48.05
2023-04-15T21:08:37.681Z,48.42
2023-04-15T21:11:04.500Z,48.50
2023-04-15T21:13:31.484Z,48.45
2023-04-15T21:15:58.343Z,48.62
2023-04-15T21:18:25.163Z,49.11
2023-04-15T21:20:59.652Z,48.92
2023-04-15T21:23:27.927Z,49.76
2023-04-15T21:25:54.833Z,48.71
2023-04-15T21:28:22.186Z,48.27
2023-04-15T21:30:49.609Z,48.42
2023-04-15T21:33:16.565Z,48.34
2023-04-15T21:35:43.454Z,47.87
2023-04-15T21:38:10.226Z,48.27
2023-04-15T21:40:37.080Z,47.91
2023-04-15T21:43:03.981Z,48.24
2023-04-15T21:45:31.019Z,48.88
2023-04-15T21:48:07.462Z,51.25
2023-04-15T21:50:39.143Z,49.99
2023-04-15T21:53:08.591Z,49.60
2023-04-15T21:55:36.000Z,49.88
2023-04-15T21:58:02.901Z,49.78
2023-04-15T22:00:30.185Z,50.54
2023-04-15T22:02:57.289Z,49.99
2023-04-15T22:05:25.557Z,49.88
2023-04-15T22:07:52.395Z,49.92
2023-04-15T22:10:19.405Z,49.76
2023-04-15T22:12:46.276Z,49.71
2023-04-15T22:15:13.139Z,49.06
2023-04-15T22:17:40.149Z,48.93
2023-04-15T22:20:07.870Z,48.39
2023-04-15T22:22:43.940Z,48.88
2023-04-15T22:25:11.864Z,48.62
2023-04-15T22:27:38.813Z,48.10
2023-04-15T22:30:06.394Z,48.16
2023-04-15T22:32:33.366Z,48.19
2023-04-15T22:35:02.399Z,47.81
2023-04-15T22:37:29.355Z,48.10
2023-04-15T22:39:56.815Z,48.74
2023-04-15T22:42:23.860Z,48.68
2023-04-15T22:44:51.325Z,48.91
2023-04-15T22:47:18.879Z,48.89
2023-04-15T22:49:45.658Z,48.57
2023-04-15T22:52:20.144Z,48.30
2023-04-15T22:54:54.458Z,48.83
2023-04-15T22:57:21.326Z,48.35
2023-04-15T22:59:48.216Z,48.37
2023-04-15T23:02:15.246Z,48.08
2023-04-15T23:04:42.306Z,48.34
2023-04-15T23:07:09.165Z,48.61
2023-04-15T23:09:36.010Z,48.53
2023-04-15T23:12:03.233Z,48.23
2023-04-15T23:14:30.643Z,48.70
2023-04-15T23:16:58.280Z,48.54
2023-04-15T23:19:25.210Z,48.43
2023-04-15T23:21:52.078Z,48.46
2023-04-15T23:24:19.036Z,48.20
2023-04-15T23:26:45.869Z,48.17
2023-04-15T23:29:12.725Z,48.32
2023-04-15T23:31:39.925Z,48.71
2023-04-15T23:34:06.728Z,49.32
2023-04-15T23:36:33.625Z,48.90
2023-04-15T23:39:00.521Z,49.28
2023-04-15T23:41:27.491Z,49.50
2023-04-15T23:43:54.422Z,49.67
2023-04-15T23:46:21.353Z,49.71
2023-04-15T23:48:48.281Z,49.72
2023-04-15T23:51:15.215Z,49.50
2023-04-15T23:53:42.145Z,49.38
2023-04-15T23:56:08.992Z,49.17
2023-04-15T23:58:35.864Z,49.36
